Terminal Aerodrome Forecast
Issued by NWS

Home | Current Version | Previous Version | Text Only | Print | Product List | Glossary On
Versions: 1 2 3 4 5 6 7 8 9 10 11 12 13 14 15
000
FTAK31 PAJN 011700
TAFAKT
TAF
PAKT 011722Z 0118/0218 12004KT P6SM -SHRA SCT006 BKN020 OVC035
      TEMPO 0118/0122 SCT006 OVC010
     FM012200 13007KT P6SM -SHRA BKN015 OVC025
     FM020600 12003KT P6SM VCSH SCT015 OVC030
     FM020900 32005KT P6SM VCSH SCT015 BKN025 BKN035
     FM021300 32005KT P6SM SCT035 SCT050
      AMD LTD TO CLD VIS AND WIND 0206/0215=

USA.gov is the U.S. government's official web portal to all federal, state and local government web resources and services.